createdAt,value
2023-01-15T00:00:28.693Z,6.80
2023-01-15T00:05:31.176Z,6.80
2023-01-15T00:10:33.759Z,6.90
2023-01-15T00:15:36.565Z,7.00
2023-01-15T00:20:39.113Z,7.10
2023-01-15T00:26:00.338Z,7.10
2023-01-15T00:31:02.987Z,7.20
2023-01-15T00:36:06.016Z,7.20
2023-01-15T00:41:08.640Z,7.20
2023-01-15T00:46:11.355Z,7.30
2023-01-15T00:51:14.060Z,7.30
2023-01-15T00:56:16.717Z,7.40
2023-01-15T01:01:19.467Z,7.40
2023-01-15T01:06:22.686Z,7.60
2023-01-15T01:11:27.056Z,7.90
2023-01-15T01:16:35.685Z,8.30
2023-01-15T01:21:40.106Z,8.50
2023-01-15T01:26:45.309Z,8.60
2023-01-15T01:31:48.557Z,8.80
2023-01-15T01:36:51.096Z,9.00
2023-01-15T01:41:53.675Z,9.00
2023-01-15T01:52:10.997Z,9.20
2023-01-15T02:02:18.474Z,9.60
2023-01-15T02:07:22.107Z,9.70
2023-01-15T02:12:27.689Z,9.80
2023-01-15T02:17:48.863Z,9.90
2023-01-15T02:22:54.153Z,9.70
2023-01-15T02:28:07.651Z,9.80
2023-01-15T02:33:18.382Z,9.80
2023-01-15T02:38:24.260Z,9.80
2023-01-15T02:43:35.576Z,9.90
2023-01-15T02:48:41.697Z,9.90
2023-01-15T02:53:48.626Z,10.10
2023-01-15T02:58:57.959Z,10.20
2023-01-15T03:04:14.105Z,10.20
2023-01-15T03:09:17.210Z,10.20
2023-01-15T03:14:52.072Z,10.20
2023-01-15T03:20:02.293Z,10.10
2023-01-15T03:25:26.484Z,10.00
2023-01-15T03:30:33.149Z,10.00
2023-01-15T03:36:00.114Z,10.10
2023-01-15T03:41:24.896Z,10.00
2023-01-15T03:46:54.722Z,9.90
2023-01-15T03:52:32.758Z,10.00
2023-01-15T03:57:42.020Z,9.90
2023-01-15T04:02:47.040Z,9.80
2023-01-15T04:07:54.837Z,9.70
2023-01-15T04:12:57.917Z,10.00
2023-01-15T04:18:00.671Z,10.00
2023-01-15T04:23:05.581Z,10.00
2023-01-15T04:28:08.710Z,10.20
2023-01-15T04:33:11.824Z,10.20
2023-01-15T04:38:14.765Z,10.00
2023-01-15T04:43:36.681Z,9.90
2023-01-15T04:48:40.345Z,10.00
2023-01-15T04:53:42.892Z,9.90
2023-01-15T04:58:45.386Z,10.00
2023-01-15T05:03:47.963Z,10.30
2023-01-15T05:08:50.565Z,10.30
2023-01-15T05:13:53.659Z,10.20
2023-01-15T05:18:59.838Z,10.30
2023-01-15T05:24:04.344Z,10.30
2023-01-15T05:29:06.917Z,10.30
2023-01-15T05:34:10.646Z,11.10
2023-01-15T05:39:13.225Z,11.70
2023-01-15T05:44:30.073Z,12.00
2023-01-15T05:49:32.882Z,12.40
2023-01-15T05:54:36.426Z,12.40
2023-01-15T05:59:39.433Z,12.30
2023-01-15T06:04:42.118Z,12.40
2023-01-15T06:09:45.611Z,12.10
2023-01-15T06:14:48.230Z,11.20
2023-01-15T06:19:51.074Z,10.70
2023-01-15T06:24:53.621Z,10.30
2023-01-15T06:29:59.066Z,10.20
2023-01-15T06:35:01.641Z,10.10
2023-01-15T06:40:04.618Z,10.00
2023-01-15T06:45:29.007Z,9.90
2023-01-15T06:50:31.573Z,10.00
2023-01-15T06:55:34.140Z,10.00
2023-01-15T07:00:36.737Z,9.70
2023-01-15T07:05:39.462Z,9.80
2023-01-15T07:10:42.005Z,9.90
2023-01-15T07:15:44.729Z,9.80
2023-01-15T07:20:47.307Z,9.70
2023-01-15T07:25:49.904Z,9.60
2023-01-15T07:30:52.567Z,9.80
2023-01-15T07:35:56.936Z,9.80
2023-01-15T07:41:17.998Z,9.90
2023-01-15T07:46:38.958Z,10.00
2023-01-15T07:51:41.438Z,10.00
2023-01-15T07:56:43.997Z,10.00
2023-01-15T08:01:46.937Z,10.10
2023-01-15T08:06:49.625Z,10.10
2023-01-15T08:12:11.054Z,10.10
2023-01-15T08:17:13.667Z,10.20
2023-01-15T08:22:16.314Z,10.40
2023-01-15T08:27:18.790Z,10.40
2023-01-15T08:32:21.356Z,10.40
2023-01-15T08:37:25.442Z,10.50
2023-01-15T08:42:28.372Z,10.50
2023-01-15T08:47:32.487Z,10.50
2023-01-15T08:52:34.969Z,10.60
2023-01-15T08:57:38.733Z,10.70
2023-01-15T09:02:41.277Z,10.70
2023-01-15T09:07:43.764Z,10.60
2023-01-15T09:12:46.552Z,10.50
2023-01-15T09:17:49.087Z,10.50
2023-01-15T09:22:54.659Z,10.70
2023-01-15T09:27:57.183Z,11.00
2023-01-15T09:32:59.747Z,10.90
2023-01-15T09:38:02.270Z,11.10
2023-01-15T09:43:49.840Z,9.90
2023-01-15T09:49:19.049Z,9.00
2023-01-15T09:54:33.192Z,8.70
2023-01-15T09:59:37.554Z,8.50
2023-01-15T10:04:48.317Z,8.30
2023-01-15T10:10:03.082Z,7.00
2023-01-15T10:20:26.515Z,6.10
2023-01-15T10:25:40.076Z,5.80
2023-01-15T10:30:47.637Z,5.70
2023-01-15T10:36:05.248Z,6.90
2023-01-15T10:41:16.557Z,7.80
2023-01-15T10:46:38.245Z,6.70
2023-01-15T10:51:47.609Z,6.40
2023-01-15T10:57:02.262Z,7.60
2023-01-15T11:02:32.452Z,8.80
2023-01-15T11:08:26.405Z,9.80
2023-01-15T11:13:45.616Z,10.80
2023-01-15T11:19:07.134Z,10.90
2023-01-15T11:24:16.659Z,11.40
2023-01-15T11:29:32.587Z,11.40
2023-01-15T11:34:36.917Z,12.20
2023-01-15T11:39:39.646Z,12.30
2023-01-15T11:45:13.775Z,12.70
2023-01-15T11:50:38.761Z,12.60
2023-01-15T11:55:50.392Z,13.00
2023-01-15T12:00:56.221Z,13.30
2023-01-15T12:06:06.003Z,13.10
2023-01-15T12:11:28.077Z,12.30
2023-01-15T12:16:40.784Z,11.70
2023-01-15T12:21:57.705Z,11.90
2023-01-15T12:27:15.063Z,12.30
2023-01-15T12:32:29.711Z,12.20
2023-01-15T12:37:42.665Z,11.80
2023-01-15T12:43:08.129Z,12.70
2023-01-15T12:48:29.343Z,12.10
2023-01-15T12:53:45.778Z,9.40
2023-01-15T12:59:05.871Z,8.00
2023-01-15T13:04:25.017Z,7.00
2023-01-15T13:14:37.632Z,5.90
2023-01-15T13:20:06.347Z,5.60
2023-01-15T13:25:33.707Z,5.50
2023-01-15T13:30:52.256Z,5.50
2023-01-15T13:36:04.341Z,5.50
2023-01-15T13:41:08.839Z,5.30
2023-01-15T13:46:19.489Z,5.30
2023-01-15T13:51:43.378Z,5.20
2023-01-15T13:56:46.221Z,5.20
2023-01-15T14:01:49.141Z,5.10
2023-01-15T14:06:55.123Z,5.10
2023-01-15T14:12:41.861Z,5.00
2023-01-15T14:18:22.932Z,4.90
2023-01-15T14:23:54.643Z,4.80
2023-01-15T14:29:29.548Z,4.80
2023-01-15T14:34:36.117Z,4.70
2023-01-15T14:39:49.704Z,4.60
2023-01-15T14:45:07.639Z,4.60
2023-01-15T14:50:23.221Z,4.60
2023-01-15T14:55:26.873Z,4.50
2023-01-15T15:00:42.943Z,4.50
2023-01-15T15:05:47.825Z,4.40
2023-01-15T15:10:57.292Z,4.40
2023-01-15T15:16:12.191Z,4.30
2023-01-15T15:21:26.998Z,4.30
2023-01-15T15:26:35.746Z,4.30
2023-01-15T15:31:56.396Z,4.20
2023-01-15T15:37:01.828Z,4.20
2023-01-15T15:42:29.728Z,4.20
2023-01-15T15:47:58.263Z,4.10
2023-01-15T15:53:06.853Z,4.10
2023-01-15T15:58:25.767Z,4.10
2023-01-15T16:08:36.919Z,4.20
2023-01-15T16:13:46.249Z,4.10
2023-01-15T16:18:53.603Z,4.00
2023-01-15T16:24:10.034Z,3.90
2023-01-15T16:29:31.308Z,3.90
2023-01-15T16:34:35.536Z,3.90
2023-01-15T16:39:46.369Z,4.00
2023-01-15T16:44:56.591Z,4.10
2023-01-15T16:50:24.330Z,4.20
2023-01-15T16:55:36.486Z,4.30
2023-01-15T17:00:44.983Z,4.30
2023-01-15T17:06:00.849Z,4.40
2023-01-15T17:11:04.644Z,4.30
2023-01-15T17:16:13.456Z,4.20
2023-01-15T17:21:19.522Z,4.30
2023-01-15T17:26:25.338Z,4.30
2023-01-15T17:31:30.943Z,4.30
2023-01-15T17:36:34.637Z,4.20
2023-01-15T17:41:37.432Z,4.20
2023-01-15T17:46:40.084Z,4.20
2023-01-15T17:51:43.264Z,4.20
2023-01-15T17:57:04.625Z,4.20
2023-01-15T18:02:33.347Z,4.10
2023-01-15T18:07:41.021Z,4.10
2023-01-15T18:12:43.617Z,4.20
2023-01-15T18:17:46.976Z,4.30
2023-01-15T18:22:49.493Z,4.20
2023-01-15T18:27:52.191Z,4.00
2023-01-15T18:32:54.913Z,3.90
2023-01-15T18:37:58.084Z,3.70
2023-01-15T18:43:19.308Z,3.80
2023-01-15T18:48:22.118Z,3.70
2023-01-15T18:53:24.856Z,3.50
2023-01-15T18:58:27.326Z,3.50
2023-01-15T19:03:32.096Z,3.50
2023-01-15T19:08:34.791Z,3.80
2023-01-15T19:13:37.260Z,3.50
2023-01-15T19:18:42.799Z,3.50
2023-01-15T19:23:45.291Z,3.50
2023-01-15T19:28:47.815Z,3.50
2023-01-15T19:33:50.392Z,3.50
2023-01-15T19:44:14.466Z,3.20
2023-01-15T19:49:38.850Z,3.20
2023-01-15T19:54:56.629Z,3.20
2023-01-15T19:59:59.476Z,3.20
2023-01-15T20:10:08.295Z,3.20
2023-01-15T20:15:11.263Z,3.10
2023-01-15T20:20:14.319Z,3.00
2023-01-15T20:30:24.936Z,5.10
2023-01-15T20:35:33.509Z,6.10
2023-01-15T20:40:36.626Z,7.70
2023-01-15T20:45:40.677Z,5.60
2023-01-15T20:51:06.345Z,4.20
2023-01-15T20:56:15.497Z,4.00
2023-01-15T21:06:22.448Z,7.00
2023-01-15T21:16:29.207Z,6.40
2023-01-15T21:21:33.771Z,7.00
2023-01-15T21:26:37.056Z,7.20
2023-01-15T21:31:40.037Z,7.00
2023-01-15T21:36:42.823Z,7.70
2023-01-15T21:42:03.829Z,7.60
2023-01-15T21:47:11.824Z,8.10
2023-01-15T21:52:16.967Z,8.90
2023-01-15T21:57:19.557Z,8.40
2023-01-15T22:02:23.540Z,7.00
2023-01-15T22:07:26.605Z,7.00
2023-01-15T22:12:29.121Z,7.80
2023-01-15T22:17:31.649Z,7.20
2023-01-15T22:22:36.518Z,7.10
2023-01-15T22:27:41.010Z,8.40
2023-01-15T22:32:43.625Z,9.60
2023-01-15T22:37:46.198Z,9.80
2023-01-15T22:42:48.698Z,9.40
2023-01-15T22:47:51.301Z,9.80
2023-01-15T22:52:56.345Z,10.40
2023-01-15T22:57:58.960Z,9.40
2023-01-15T23:03:07.756Z,9.20
2023-01-15T23:08:10.370Z,9.30
2023-01-15T23:13:13.663Z,8.20
2023-01-15T23:18:16.182Z,7.40
2023-01-15T23:23:18.729Z,6.30
2023-01-15T23:28:21.251Z,6.30
2023-01-15T23:33:23.995Z,6.80
2023-01-15T23:38:26.960Z,7.90
2023-01-15T23:43:48.003Z,8.00
2023-01-15T23:48:50.544Z,7.40
2023-01-15T23:53:53.246Z,7.60
2023-01-15T23:58:56.763Z,7.00
